createdAt,value
2018-07-03T00:01:48.963Z,1.40
2018-07-03T00:04:19.233Z,1.60
2018-07-03T00:06:49.387Z,1.20
2018-07-03T00:09:19.589Z,1.60
2018-07-03T00:11:49.728Z,1.40
2018-07-03T00:14:19.917Z,1.30
2018-07-03T00:16:55.331Z,1.40
2018-07-03T00:19:25.422Z,1.70
2018-07-03T00:21:55.564Z,1.60
2018-07-03T00:24:25.694Z,1.30
2018-07-03T00:26:55.795Z,1.30
2018-07-03T00:29:25.927Z,1.60
2018-07-03T00:31:56.120Z,1.50
2018-07-03T00:34:26.267Z,1.50
2018-07-03T00:36:56.451Z,1.43
2018-07-03T00:39:26.566Z,1.30
2018-07-03T00:41:56.727Z,1.37
2018-07-03T00:44:26.890Z,1.50
2018-07-03T00:46:57.035Z,1.70
2018-07-03T00:49:27.267Z,1.50
2018-07-03T00:51:57.542Z,1.37
2018-07-03T00:54:27.816Z,1.60
2018-07-03T00:56:58.031Z,1.63
2018-07-03T00:59:28.183Z,1.70
2018-07-03T01:01:58.411Z,1.90
2018-07-03T01:04:28.608Z,1.60
2018-07-03T01:06:58.792Z,1.50
2018-07-03T01:09:28.853Z,1.30
2018-07-03T01:11:58.493Z,1.50
2018-07-03T01:14:28.639Z,1.60
2018-07-03T01:16:58.856Z,1.40
2018-07-03T01:19:29.034Z,1.50
2018-07-03T01:21:59.267Z,1.60
2018-07-03T01:24:29.342Z,1.50
2018-07-03T01:26:59.516Z,1.63
2018-07-03T01:29:29.628Z,1.60
2018-07-03T01:31:59.893Z,1.60
2018-07-03T01:34:30.000Z,1.40
2018-07-03T01:37:00.214Z,1.47
2018-07-03T01:39:30.356Z,1.70
2018-07-03T01:42:00.634Z,1.40
2018-07-03T01:44:30.825Z,1.60
2018-07-03T01:47:00.945Z,1.70
2018-07-03T01:49:31.061Z,1.60
2018-07-03T01:52:01.249Z,1.50
2018-07-03T01:54:37.870Z,1.50
2018-07-03T01:57:07.964Z,1.53
2018-07-03T01:59:38.062Z,1.80
2018-07-03T02:02:08.308Z,1.80
2018-07-03T02:04:38.529Z,1.53
2018-07-03T02:07:08.820Z,1.73
2018-07-03T02:09:38.946Z,1.80
2018-07-03T02:12:09.070Z,1.50
2018-07-03T02:14:39.210Z,1.57
2018-07-03T02:17:09.435Z,1.70
2018-07-03T02:19:39.650Z,1.50
2018-07-03T02:22:09.887Z,1.70
2018-07-03T02:24:40.037Z,1.77
2018-07-03T02:27:10.124Z,1.60
2018-07-03T02:29:40.284Z,1.70
2018-07-03T02:32:10.451Z,2.00
2018-07-03T02:34:40.555Z,1.73
2018-07-03T02:37:10.684Z,1.73
2018-07-03T02:39:40.844Z,1.47
2018-07-03T02:42:10.981Z,1.93
2018-07-03T02:44:41.087Z,1.80
2018-07-03T02:47:11.208Z,1.70
2018-07-03T02:49:41.305Z,1.90
2018-07-03T02:52:11.425Z,2.17
2018-07-03T02:54:41.527Z,1.73
2018-07-03T02:57:11.688Z,2.20
2018-07-03T02:59:41.851Z,1.80
2018-07-03T03:02:12.117Z,2.13
2018-07-03T03:04:42.295Z,1.87
2018-07-03T03:07:12.507Z,1.80
2018-07-03T03:09:42.673Z,1.80
2018-07-03T03:12:12.843Z,2.10
2018-07-03T03:14:43.111Z,1.70
2018-07-03T03:17:13.347Z,2.00
2018-07-03T03:19:43.588Z,1.80
2018-07-03T03:22:13.866Z,1.80
2018-07-03T03:24:44.005Z,1.73
2018-07-03T03:27:14.191Z,2.00
2018-07-03T03:29:44.420Z,1.93
2018-07-03T03:32:14.555Z,2.10
2018-07-03T03:34:44.791Z,1.90
2018-07-03T03:37:15.070Z,1.87
2018-07-03T03:39:45.290Z,1.97
2018-07-03T03:42:15.525Z,1.90
2018-07-03T03:44:45.714Z,1.90
2018-07-03T03:47:15.903Z,2.20
2018-07-03T03:49:46.212Z,1.90
2018-07-03T03:52:16.371Z,2.27
2018-07-03T03:54:46.607Z,1.90
2018-07-03T03:57:16.342Z,1.70
2018-07-03T03:59:46.607Z,2.00
2018-07-03T04:02:16.912Z,2.23
2018-07-03T04:04:47.168Z,2.00
2018-07-03T04:07:17.386Z,2.30
2018-07-03T04:09:47.584Z,2.30
2018-07-03T04:12:17.785Z,2.17
2018-07-03T04:14:47.991Z,2.13
2018-07-03T04:17:18.229Z,2.13
2018-07-03T04:19:48.526Z,2.00
2018-07-03T04:22:18.792Z,1.87
2018-07-03T04:24:48.955Z,2.00
2018-07-03T04:27:19.269Z,2.20
2018-07-03T04:29:49.460Z,2.47
2018-07-03T04:32:19.729Z,2.70
2018-07-03T04:34:49.906Z,2.07
2018-07-03T04:37:20.129Z,2.30
2018-07-03T04:39:50.244Z,2.50
2018-07-03T04:42:20.391Z,2.40
2018-07-03T04:44:50.491Z,2.50
2018-07-03T04:47:20.648Z,2.60
2018-07-03T04:49:57.410Z,2.40
2018-07-03T04:52:27.621Z,2.23
2018-07-03T04:54:57.928Z,2.13
2018-07-03T04:57:28.089Z,2.23
2018-07-03T04:59:58.196Z,2.50
2018-07-03T05:02:28.396Z,2.37
2018-07-03T05:04:58.671Z,2.60
2018-07-03T05:07:28.949Z,2.40
2018-07-03T05:09:59.255Z,2.50
2018-07-03T05:12:29.447Z,2.77
2018-07-03T05:14:59.579Z,2.63
2018-07-03T05:17:29.843Z,2.77
2018-07-03T05:20:00.136Z,2.40
2018-07-03T05:22:30.431Z,2.37
2018-07-03T05:25:00.706Z,2.50
2018-07-03T05:27:30.860Z,2.80
2018-07-03T05:30:01.292Z,2.67
2018-07-03T05:32:31.534Z,2.97
2018-07-03T05:35:01.753Z,2.60
2018-07-03T05:37:31.968Z,2.87
2018-07-03T05:40:02.271Z,2.90
2018-07-03T05:42:32.548Z,2.70
2018-07-03T05:45:02.817Z,2.67
2018-07-03T05:47:33.057Z,2.53
2018-07-03T05:50:02.930Z,2.70
2018-07-03T05:52:33.163Z,2.60
2018-07-03T05:55:03.409Z,2.73
2018-07-03T05:57:33.727Z,2.87
2018-07-03T06:00:04.147Z,2.70
2018-07-03T06:02:34.528Z,2.73
2018-07-03T06:05:04.826Z,2.63
2018-07-03T06:07:35.129Z,2.57
2018-07-03T06:10:05.786Z,2.60
2018-07-03T06:12:35.994Z,2.20
2018-07-03T06:15:07.033Z,2.03
2018-07-03T06:17:37.409Z,2.30
2018-07-03T06:20:10.005Z,2.30
2018-07-03T06:22:40.369Z,2.20
2018-07-03T06:25:10.787Z,2.07
2018-07-03T06:27:41.075Z,2.10
2018-07-03T06:30:11.430Z,2.23
2018-07-03T06:32:41.692Z,1.77
2018-07-03T06:35:11.947Z,1.70
2018-07-03T06:37:42.254Z,1.93
2018-07-03T06:40:12.546Z,1.77
2018-07-03T06:42:42.351Z,2.13
2018-07-03T06:45:12.534Z,1.60
2018-07-03T06:47:42.880Z,1.80
2018-07-03T06:50:13.051Z,1.83
2018-07-03T06:52:43.400Z,1.70
2018-07-03T06:55:13.689Z,1.93
2018-07-03T06:57:43.506Z,1.87
2018-07-03T07:00:13.744Z,1.93
2018-07-03T07:02:44.088Z,1.70
2018-07-03T07:05:14.385Z,1.50
2018-07-03T07:07:44.667Z,1.60
2018-07-03T07:10:14.918Z,1.67
2018-07-03T07:12:45.231Z,1.75
2018-07-03T07:15:15.492Z,1.50
2018-07-03T07:17:45.715Z,1.60
2018-07-03T07:20:15.918Z,1.87
2018-07-03T07:22:46.308Z,1.90
2018-07-03T07:25:16.548Z,1.57
2018-07-03T07:27:46.830Z,1.75
2018-07-03T07:30:17.249Z,1.70
2018-07-03T07:32:47.753Z,1.50
2018-07-03T07:35:17.984Z,1.30
2018-07-03T07:37:48.213Z,1.50
2018-07-03T07:40:18.627Z,1.62
2018-07-03T07:42:48.896Z,3.52
2018-07-03T07:45:19.149Z,1.40
2018-07-03T07:47:49.655Z,1.60
2018-07-03T07:50:19.960Z,1.40
2018-07-03T07:52:50.225Z,1.35
2018-07-03T07:55:20.466Z,1.37
2018-07-03T07:57:50.746Z,1.45
2018-07-03T08:00:21.052Z,1.40
2018-07-03T08:02:51.314Z,1.55
2018-07-03T08:05:21.515Z,1.50
2018-07-03T08:07:51.802Z,1.57
2018-07-03T08:10:22.049Z,1.57
2018-07-03T08:12:52.392Z,1.55
2018-07-03T08:15:22.686Z,1.42
2018-07-03T08:17:52.979Z,1.07
2018-07-03T08:20:23.167Z,1.30
2018-07-03T08:22:53.524Z,1.50
2018-07-03T08:25:23.857Z,1.40
2018-07-03T08:27:54.177Z,1.20
2018-07-03T08:30:24.456Z,1.40
2018-07-03T08:32:54.682Z,1.50
2018-07-03T08:35:24.913Z,1.20
2018-07-03T08:37:55.254Z,1.02
2018-07-03T08:40:25.487Z,1.20
2018-07-03T08:42:56.289Z,1.32
2018-07-03T08:45:26.588Z,1.40
2018-07-03T08:47:56.846Z,1.42
2018-07-03T08:50:27.152Z,1.30
2018-07-03T08:52:57.467Z,1.10
2018-07-03T08:55:27.768Z,1.50
2018-07-03T08:57:58.125Z,1.25
2018-07-03T09:00:28.378Z,1.32
2018-07-03T09:02:58.759Z,1.25
2018-07-03T09:05:29.088Z,1.45
2018-07-03T09:07:59.306Z,1.20
2018-07-03T09:10:29.591Z,1.17
2018-07-03T09:12:59.904Z,1.47
2018-07-03T09:15:29.789Z,1.50
2018-07-03T09:18:00.129Z,1.20
2018-07-03T09:20:30.406Z,1.40
2018-07-03T09:23:00.621Z,1.17
2018-07-03T09:25:30.851Z,1.62
2018-07-03T09:28:01.131Z,1.25
2018-07-03T09:30:31.479Z,1.40
2018-07-03T09:33:01.711Z,1.20
2018-07-03T09:35:32.015Z,1.00
2018-07-03T09:38:02.247Z,1.30
2018-07-03T09:40:32.526Z,1.70
2018-07-03T09:43:02.752Z,1.47
2018-07-03T09:45:32.989Z,1.20
2018-07-03T09:48:03.653Z,1.32
2018-07-03T09:50:33.873Z,1.30
2018-07-03T09:53:04.106Z,1.25
2018-07-03T09:55:34.378Z,1.37
2018-07-03T09:58:04.667Z,1.25
2018-07-03T10:00:39.991Z,1.30
2018-07-03T10:03:10.267Z,1.20
2018-07-03T10:05:40.573Z,1.47
2018-07-03T10:08:10.817Z,1.17
2018-07-03T10:10:41.049Z,1.40
2018-07-03T10:13:11.386Z,1.20
2018-07-03T10:15:41.636Z,1.20
2018-07-03T10:18:11.902Z,1.05
2018-07-03T10:20:42.330Z,1.20
2018-07-03T10:23:12.578Z,1.27
2018-07-03T10:25:42.819Z,1.42
2018-07-03T10:28:13.103Z,1.42
2018-07-03T10:30:43.335Z,1.20
2018-07-03T10:33:13.666Z,1.22
2018-07-03T10:35:43.969Z,1.32
2018-07-03T10:38:14.371Z,1.12
2018-07-03T10:40:44.629Z,1.22
2018-07-03T10:43:14.910Z,1.10
2018-07-03T10:45:45.147Z,1.32
2018-07-03T10:48:15.395Z,1.10
2018-07-03T10:50:45.731Z,1.40
2018-07-03T10:53:16.089Z,1.20
2018-07-03T10:55:46.286Z,1.07
2018-07-03T10:58:16.610Z,1.10
2018-07-03T11:00:46.867Z,1.10
2018-07-03T11:03:17.158Z,1.30
2018-07-03T11:05:47.563Z,1.40
2018-07-03T11:08:17.764Z,1.35
2018-07-03T11:10:48.298Z,1.40
2018-07-03T11:13:18.605Z,1.25
2018-07-03T11:15:48.810Z,1.22
2018-07-03T11:18:19.020Z,1.27
2018-07-03T11:20:49.177Z,1.15
2018-07-03T11:23:19.360Z,1.15
2018-07-03T11:25:49.629Z,1.20
2018-07-03T11:28:19.930Z,1.60
2018-07-03T11:30:50.115Z,1.25
2018-07-03T11:33:20.304Z,1.17
2018-07-03T11:35:50.517Z,1.30
2018-07-03T11:38:20.687Z,1.10
2018-07-03T11:40:50.889Z,1.32
2018-07-03T11:43:21.216Z,1.00
2018-07-03T11:45:51.449Z,1.20
2018-07-03T11:48:21.791Z,1.30
2018-07-03T11:50:51.946Z,1.20
2018-07-03T11:53:22.131Z,1.12
2018-07-03T11:55:52.319Z,1.10
2018-07-03T11:58:22.495Z,1.10
2018-07-03T12:00:52.730Z,1.12
2018-07-03T12:03:22.795Z,1.05
2018-07-03T12:05:53.061Z,1.10
2018-07-03T12:08:23.317Z,1.25
2018-07-03T12:10:53.542Z,1.20
2018-07-03T12:13:23.839Z,1.00
2018-07-03T12:15:54.076Z,1.27
2018-07-03T12:18:29.466Z,1.20
2018-07-03T12:20:59.842Z,1.30
2018-07-03T12:23:30.048Z,1.45
2018-07-03T12:26:00.184Z,1.35
2018-07-03T12:28:30.427Z,1.27
2018-07-03T12:31:00.678Z,1.10
2018-07-03T12:33:30.837Z,1.40
2018-07-03T12:36:01.100Z,1.22
2018-07-03T12:38:31.237Z,1.20
2018-07-03T12:41:01.520Z,1.20
2018-07-03T12:43:31.710Z,1.20
2018-07-03T12:46:01.874Z,1.20
2018-07-03T12:48:32.109Z,1.30
2018-07-03T12:51:02.465Z,1.17
2018-07-03T12:53:32.218Z,1.72
2018-07-03T12:56:02.496Z,1.40
2018-07-03T12:58:32.735Z,1.35
2018-07-03T13:01:02.901Z,1.40
2018-07-03T13:03:33.050Z,1.30
2018-07-03T13:06:03.336Z,1.20
2018-07-03T13:08:33.678Z,1.40
2018-07-03T13:11:03.870Z,1.52
2018-07-03T13:13:34.032Z,1.37
2018-07-03T13:16:04.256Z,1.10
2018-07-03T13:18:34.463Z,1.27
2018-07-03T13:21:04.614Z,1.42
2018-07-03T13:23:34.805Z,1.50
2018-07-03T13:26:05.242Z,1.30
2018-07-03T13:28:35.469Z,1.20
2018-07-03T13:31:05.749Z,1.57
2018-07-03T13:33:36.027Z,1.45
2018-07-03T13:36:06.483Z,1.60
2018-07-03T13:38:36.812Z,1.37
2018-07-03T13:41:07.035Z,2.35
2018-07-03T13:43:37.311Z,2.08
2018-07-03T13:46:07.659Z,1.70
2018-07-03T13:48:37.925Z,1.90
2018-07-03T13:51:08.307Z,1.50
2018-07-03T13:53:38.680Z,1.60
2018-07-03T13:56:08.903Z,1.47
2018-07-03T13:58:39.091Z,1.40
2018-07-03T14:01:09.373Z,1.50
2018-07-03T14:03:39.584Z,1.30
2018-07-03T14:06:09.829Z,1.25
2018-07-03T14:08:40.096Z,1.37
2018-07-03T14:11:10.866Z,1.55
2018-07-03T14:13:41.490Z,1.67
2018-07-03T14:16:11.809Z,1.47
2018-07-03T14:18:42.033Z,1.50
2018-07-03T14:21:12.265Z,1.98
2018-07-03T14:23:42.607Z,1.75
2018-07-03T14:26:12.875Z,1.42
2018-07-03T14:28:43.148Z,1.98
2018-07-03T14:31:13.426Z,1.37
2018-07-03T14:33:43.597Z,1.40
2018-07-03T14:36:13.753Z,1.30
2018-07-03T14:38:43.966Z,1.60
2018-07-03T14:41:14.171Z,1.12
2018-07-03T14:43:45.172Z,1.40
2018-07-03T14:46:15.383Z,1.30
2018-07-03T14:48:45.544Z,1.30
2018-07-03T14:51:15.771Z,1.20
2018-07-03T14:53:45.945Z,2.08
2018-07-03T14:56:16.138Z,1.17
2018-07-03T14:58:46.289Z,2.08
2018-07-03T15:01:16.506Z,1.57
2018-07-03T15:03:46.640Z,1.45
2018-07-03T15:06:16.967Z,1.27
2018-07-03T15:08:47.271Z,1.30
2018-07-03T15:11:17.535Z,1.30
2018-07-03T15:13:47.640Z,1.40
2018-07-03T15:16:17.795Z,1.42
2018-07-03T15:18:53.007Z,1.40
2018-07-03T15:21:23.235Z,1.45
2018-07-03T15:23:53.463Z,1.40
2018-07-03T15:26:23.632Z,1.40
2018-07-03T15:28:54.277Z,1.27
2018-07-03T15:31:24.633Z,1.67
2018-07-03T15:33:54.764Z,1.45
2018-07-03T15:36:25.120Z,1.40
2018-07-03T15:38:55.526Z,1.22
2018-07-03T15:41:25.832Z,1.30
2018-07-03T15:44:12.245Z,1.72
2018-07-03T15:46:42.756Z,1.40
2018-07-03T15:49:13.194Z,1.47
2018-07-03T15:51:43.806Z,1.30
2018-07-03T15:54:14.153Z,1.45
2018-07-03T15:56:45.587Z,1.27
2018-07-03T15:59:15.988Z,1.47
2018-07-03T16:01:46.284Z,1.37
2018-07-03T16:05:34.141Z,1.52
2018-07-03T16:09:16.370Z,1.25
2018-07-03T16:11:46.775Z,1.60
2018-07-03T16:14:17.109Z,1.40
2018-07-03T16:16:47.426Z,1.30
2018-07-03T16:19:22.959Z,1.32
2018-07-03T16:21:53.361Z,1.27
2018-07-03T16:24:23.790Z,1.30
2018-07-03T16:26:54.234Z,1.50
2018-07-03T16:29:24.935Z,1.30
2018-07-03T16:31:55.418Z,1.30
2018-07-03T16:34:26.002Z,1.40
2018-07-03T16:36:56.554Z,1.25
2018-07-03T16:39:27.159Z,1.42
2018-07-03T16:41:57.487Z,1.42
2018-07-03T16:44:27.867Z,1.57
2018-07-03T16:46:58.247Z,1.45
2018-07-03T16:49:28.554Z,1.60
2018-07-03T16:51:58.847Z,1.82
2018-07-03T16:54:29.049Z,1.57
2018-07-03T16:56:59.395Z,1.17
2018-07-03T16:59:29.794Z,1.30
2018-07-03T17:02:00.189Z,1.30
2018-07-03T17:04:30.450Z,1.25
2018-07-03T17:07:00.736Z,1.67
2018-07-03T17:09:31.127Z,1.30
2018-07-03T17:12:01.423Z,1.20
2018-07-03T17:14:31.684Z,1.25
2018-07-03T17:17:01.989Z,1.42
2018-07-03T17:19:37.792Z,1.37
2018-07-03T17:22:08.439Z,1.40
2018-07-03T17:24:38.825Z,1.37
2018-07-03T17:27:09.308Z,1.32
2018-07-03T17:29:39.604Z,1.60
2018-07-03T17:32:09.811Z,1.55
2018-07-03T17:34:40.054Z,1.40
2018-07-03T17:37:10.660Z,1.35
2018-07-03T17:39:57.257Z,1.50
2018-07-03T17:42:44.130Z,1.22
2018-07-03T17:45:42.596Z,1.40
2018-07-03T17:48:13.736Z,1.27
2018-07-03T17:50:44.052Z,1.42
2018-07-03T17:53:14.407Z,1.10
2018-07-03T17:55:44.777Z,1.40
2018-07-03T17:58:15.141Z,1.27
2018-07-03T18:00:45.793Z,1.30
2018-07-03T18:03:16.055Z,1.27
2018-07-03T18:05:46.288Z,1.50
2018-07-03T18:08:16.406Z,1.32
2018-07-03T18:10:46.591Z,1.30
2018-07-03T18:13:16.884Z,1.30
2018-07-03T18:15:47.090Z,1.30
2018-07-03T18:18:17.463Z,1.20
2018-07-03T18:20:47.666Z,1.35
2018-07-03T18:23:18.065Z,1.40
2018-07-03T18:25:48.314Z,1.42
2018-07-03T18:28:19.390Z,1.30
2018-07-03T18:30:49.594Z,1.45
2018-07-03T18:33:19.834Z,1.40
2018-07-03T18:35:50.125Z,1.22
2018-07-03T18:38:20.434Z,1.30
2018-07-03T18:40:50.678Z,1.32
2018-07-03T18:43:21.116Z,1.10
2018-07-03T18:45:51.557Z,1.00
2018-07-03T18:48:21.818Z,1.12
2018-07-03T18:50:52.038Z,1.10
2018-07-03T18:53:22.307Z,1.45
2018-07-03T18:55:52.571Z,1.60
2018-07-03T18:58:22.808Z,1.90
2018-07-03T19:00:53.129Z,1.20
2018-07-03T19:03:23.592Z,5.03
2018-07-03T19:05:53.870Z,1.30
2018-07-03T19:08:24.069Z,1.50
2018-07-03T19:10:54.319Z,1.50
2018-07-03T19:13:24.605Z,1.40
2018-07-03T19:15:54.880Z,1.35
2018-07-03T19:18:25.117Z,1.30
2018-07-03T19:20:55.338Z,1.25
2018-07-03T19:23:25.526Z,1.50
2018-07-03T19:25:55.817Z,1.30
2018-07-03T19:28:26.100Z,1.27
2018-07-03T19:30:56.247Z,1.50
2018-07-03T19:33:26.440Z,1.30
2018-07-03T19:35:56.655Z,1.25
2018-07-03T19:38:26.851Z,1.47
2018-07-03T19:40:57.149Z,1.35
2018-07-03T19:43:29.460Z,1.30
2018-07-03T19:46:00.319Z,1.52
2018-07-03T19:48:30.660Z,1.60
2018-07-03T19:51:01.040Z,1.50
2018-07-03T19:53:31.301Z,1.55
2018-07-03T19:56:01.580Z,1.92
2018-07-03T19:58:31.817Z,1.55
2018-07-03T20:01:02.141Z,1.37
2018-07-03T20:03:32.488Z,1.50
2018-07-03T20:06:02.696Z,1.50
2018-07-03T20:08:32.937Z,1.45
2018-07-03T20:11:03.226Z,1.65
2018-07-03T20:13:33.491Z,1.70
2018-07-03T20:16:03.713Z,1.35
2018-07-03T20:18:33.874Z,1.55
2018-07-03T20:21:03.729Z,1.70
2018-07-03T20:23:33.960Z,1.50
2018-07-03T20:26:04.321Z,1.40
2018-07-03T20:28:34.496Z,1.92
2018-07-03T20:31:04.710Z,1.37
2018-07-03T20:33:34.856Z,1.60
2018-07-03T20:36:05.181Z,1.60
2018-07-03T20:38:35.432Z,1.62
2018-07-03T20:41:06.928Z,1.70
2018-07-03T20:43:38.502Z,1.72
2018-07-03T20:46:09.733Z,1.60
2018-07-03T20:48:39.915Z,1.82
2018-07-03T20:51:10.160Z,2.00
2018-07-03T20:53:40.451Z,1.80
2018-07-03T20:56:10.570Z,2.08
2018-07-03T20:58:40.717Z,2.17
2018-07-03T21:01:12.109Z,1.90
2018-07-03T21:03:42.376Z,2.20
2018-07-03T21:06:12.783Z,2.25
2018-07-03T21:08:43.011Z,1.90
2018-07-03T21:11:13.107Z,2.37
2018-07-03T21:13:43.340Z,2.77
2018-07-03T21:16:13.509Z,2.37
2018-07-03T21:18:43.707Z,2.15
2018-07-03T21:21:13.909Z,2.40
2018-07-03T21:23:44.177Z,2.08
2018-07-03T21:26:14.360Z,2.50
2018-07-03T21:28:44.829Z,2.10
2018-07-03T21:31:15.093Z,2.10
2018-07-03T21:33:45.348Z,2.30
2018-07-03T21:36:15.560Z,2.37
2018-07-03T21:38:45.691Z,2.37
2018-07-03T21:41:15.926Z,2.40
2018-07-03T21:43:46.208Z,2.20
2018-07-03T21:46:16.476Z,2.17
2018-07-03T21:48:46.272Z,2.52
2018-07-03T21:51:16.475Z,2.10
2018-07-03T21:53:46.667Z,2.45
2018-07-03T21:56:16.806Z,2.60
2018-07-03T21:58:46.977Z,2.80
2018-07-03T22:01:17.129Z,2.55
2018-07-03T22:03:47.272Z,2.85
2018-07-03T22:06:17.361Z,3.05
2018-07-03T22:08:47.528Z,3.25
2018-07-03T22:11:17.797Z,3.25
2018-07-03T22:13:47.944Z,3.10
2018-07-03T22:16:18.163Z,3.15
2018-07-03T22:18:48.421Z,3.20
2018-07-03T22:21:18.635Z,3.45
2018-07-03T22:23:48.842Z,3.55
2018-07-03T22:26:19.076Z,3.55
2018-07-03T22:28:49.302Z,3.45
2018-07-03T22:31:19.486Z,3.70
2018-07-03T22:33:49.672Z,3.62
2018-07-03T22:36:19.840Z,3.50
2018-07-03T22:38:50.040Z,3.45
2018-07-03T22:41:20.187Z,3.45
2018-07-03T22:43:50.353Z,3.47
2018-07-03T22:46:20.605Z,3.55
2018-07-03T22:48:50.743Z,3.55
2018-07-03T22:51:20.921Z,3.90
2018-07-03T22:53:51.035Z,3.67
2018-07-03T22:56:21.198Z,3.67
2018-07-03T22:58:51.406Z,3.65
2018-07-03T23:01:21.615Z,3.90
2018-07-03T23:03:51.830Z,4.05
2018-07-03T23:06:22.039Z,4.50
2018-07-03T23:08:52.480Z,4.08
2018-07-03T23:11:22.775Z,4.20
2018-07-03T23:13:53.286Z,3.97
2018-07-03T23:16:23.490Z,4.00
2018-07-03T23:18:53.699Z,4.43
2018-07-03T23:21:23.996Z,4.00
2018-07-03T23:23:54.341Z,5.03
2018-07-03T23:26:24.505Z,4.50
2018-07-03T23:28:54.706Z,4.55
2018-07-03T23:31:24.933Z,3.97
2018-07-03T23:33:55.133Z,4.60
2018-07-03T23:36:24.935Z,4.77
2018-07-03T23:38:55.181Z,4.50
2018-07-03T23:41:25.391Z,4.33
2018-07-03T23:43:55.699Z,4.77
2018-07-03T23:46:42.253Z,4.83
2018-07-03T23:49:28.679Z,4.60
2018-07-03T23:52:15.282Z,4.53
2018-07-03T23:55:01.891Z,4.47
2018-07-03T23:57:48.560Z,4.63
